| time (UTC) | temp C | wind direction | speed KPH | gust KPH | rain 1hr cm | rain 24hr cm | rain mn cm | humidity % | barometer mb |
| 20260507120710 | 18 | 298 | 4.8 | 4.8 | 0.00 | 0.00 | 0.00 | 37 | 1020.0 |
| 20260507120548 | 18 | 298 | 4.8 | 4.8 | 0.00 | 0.00 | 0.00 | 37 | 1020.0 |
| 20260507115709 | 18 | 290 | 3.2 | 3.2 | 0.00 | 0.00 | 0.00 | 37 | 1020.0 |
| 20260507115547 | 18 | 290 | 3.2 | 3.2 | 0.00 | 0.00 | 0.00 | 37 | 1020.0 |
| 20260507114707 | 18 | 290 | 3.2 | 3.2 | 0.00 | 0.00 | 0.00 | 37 | 1020.0 |
| 20260507114546 | 18 | 290 | 3.2 | 3.2 | 0.00 | 0.00 | 0.00 | 37 | 1020.0 |
| 20260507113706 | 18 | 290 | 3.2 | 3.2 | 0.00 | 0.00 | 0.00 | 37 | 1020.0 |
| 20260507113545 | 18 | 290 | 3.2 | 3.2 | 0.00 | 0.00 | 0.00 | 37 | 1020.0 |
| 20260507112704 | 17 | 290 | 3.2 | 3.2 | 0.00 | 0.00 | 0.00 | 42 | 1021.0 |
| 20260507112543 | 17 | 290 | 3.2 | 3.2 | 0.00 | 0.00 | 0.00 | 42 | 1021.0 |
| 20260507111702 | 17 | 290 | 3.2 | 3.2 | 0.00 | 0.00 | 0.00 | 42 | 1021.0 |
| 20260507111542 | 17 | 290 | 3.2 | 3.2 | 0.00 | 0.00 | 0.00 | 42 | 1021.0 |
| 20260507110701 | 17 | 287 | 1.6 | 3.2 | 0.00 | 0.00 | 0.00 | 42 | 1021.0 |
| 20260507110540 | 17 | 287 | 1.6 | 3.2 | 0.00 | 0.00 | 0.00 | 42 | 1021.0 |
| 20260507105701 | 17 | 287 | 1.6 | 3.2 | 0.00 | 0.00 | 0.00 | 42 | 1021.0 |
| 20260507105538 | 17 | 287 | 1.6 | 3.2 | 0.00 | 0.00 | 0.00 | 42 | 1021.0 |
| 20260507104658 | 17 | 287 | 1.6 | 3.2 | 0.00 | 0.00 | 0.00 | 42 | 1021.0 |
| 20260507104537 | 17 | 287 | 1.6 | 3.2 | 0.00 | 0.00 | 0.00 | 42 | 1021.0 |
| 20260507103657 | 17 | 287 | 1.6 | 3.2 | 0.00 | 0.00 | 0.00 | 42 | 1021.0 |
| 20260507103536 | 17 | 287 | 1.6 | 3.2 | 0.00 | 0.00 | 0.00 | 42 | 1021.0 |
| 20260507102656 | 17 | 287 | 1.6 | 3.2 | 0.00 | 0.00 | 0.00 | 42 | 1021.0 |
| 20260507102534 | 17 | 287 | 1.6 | 3.2 | 0.00 | 0.00 | 0.00 | 42 | 1021.0 |
| 20260507101654 | 17 | 287 | 1.6 | 3.2 | 0.00 | 0.00 | 0.00 | 42 | 1021.0 |
| 20260507101533 | 17 | 287 | 1.6 | 3.2 | 0.00 | 0.00 | 0.00 | 42 | 1021.0 |
| 20260507100653 | 17 | 287 | 1.6 | 3.2 | 0.00 | 0.00 | 0.00 | 42 | 1021.0 |
| 20260507100531 | 17 | 287 | 1.6 | 3.2 | 0.00 | 0.00 | 0.00 | 42 | 1021.0 |
| 20260507095652 | 17 | 290 | 3.2 | 3.2 | 0.00 | 0.00 | 0.00 | 42 | 1021.0 |
| 20260507095529 | 17 | 290 | 3.2 | 3.2 | 0.00 | 0.00 | 0.00 | 42 | 1021.0 |
| 20260507094650 | 14 | 290 | 3.2 | 3.2 | 0.00 | 0.00 | 0.00 | 48 | 1019.0 |
| 20260507094528 | 14 | 290 | 3.2 | 3.2 | 0.00 | 0.00 | 0.00 | 48 | 1019.0 |
| 20260507093649 | 17 | 290 | 3.2 | 3.2 | 0.00 | 0.00 | 0.00 | 42 | 1021.0 |
| 20260507093527 | 17 | 290 | 3.2 | 3.2 | 0.00 | 0.00 | 0.00 | 42 | 1021.0 |
| 20260507092648 | 16 | 290 | 3.2 | 3.2 | 0.00 | 0.00 | 0.00 | 39 | 1021.0 |
| 20260507092526 | 16 | 290 | 3.2 | 3.2 | 0.00 | 0.00 | 0.00 | 39 | 1021.0 |
| 20260507091646 | 16 | 290 | 3.2 | 3.2 | 0.00 | 0.00 | 0.00 | 39 | 1021.0 |
| 20260507091524 | 16 | 290 | 3.2 | 3.2 | 0.00 | 0.00 | 0.00 | 39 | 1021.0 |
| 20260507090645 | 15 | 290 | 3.2 | 3.2 | 0.00 | 0.00 | 0.00 | 48 | 1021.0 |
| 20260507090522 | 15 | 290 | 3.2 | 3.2 | 0.00 | 0.00 | 0.00 | 48 | 1021.0 |
| 20260507085644 | 15 | 289 | 3.2 | 3.2 | 0.00 | 0.00 | 0.00 | 48 | 1021.0 |
| 20260507085521 | 15 | 289 | 3.2 | 3.2 | 0.00 | 0.00 | 0.00 | 48 | 1021.0 |
| 20260507084642 | 13 | 289 | 3.2 | 3.2 | 0.00 | 0.00 | 0.00 | 51 | 1020.0 |
| 20260507084519 | 13 | 289 | 3.2 | 3.2 | 0.00 | 0.00 | 0.00 | 51 | 1020.0 |
| 20260507083640 | 15 | 289 | 3.2 | 3.2 | 0.00 | 0.00 | 0.00 | 48 | 1021.0 |
| 20260507083518 | 15 | 289 | 3.2 | 3.2 | 0.00 | 0.00 | 0.00 | 48 | 1021.0 |
| 20260507082640 | 15 | 289 | 3.2 | 3.2 | 0.00 | 0.00 | 0.00 | 55 | 1022.0 |
| 20260507082517 | 15 | 289 | 3.2 | 3.2 | 0.00 | 0.00 | 0.00 | 55 | 1022.0 |
| 20260507081638 | 13 | 289 | 3.2 | 3.2 | 0.00 | 0.00 | 0.00 | 55 | 1021.0 |
| 20260507081515 | 13 | 289 | 3.2 | 3.2 | 0.00 | 0.00 | 0.00 | 55 | 1021.0 |
| 20260507080636 | 13 | 289 | 3.2 | 3.2 | 0.00 | 0.00 | 0.00 | 55 | 1021.0 |
| 20260507080513 | 13 | 289 | 3.2 | 3.2 | 0.00 | 0.00 | 0.00 | 55 | 1021.0 |
| 20260507075635 | 14 | 286 | 1.6 | 1.6 | 0.00 | 0.00 | 0.00 | 55 | 1021.0 |
| 20260507075512 | 14 | 286 | 1.6 | 1.6 | 0.00 | 0.00 | 0.00 | 55 | 1021.0 |
| 20260507074634 | 13 | 286 | 1.6 | 1.6 | 0.00 | 0.00 | 0.00 | 55 | 1021.0 |
| 20260507074511 | 13 | 286 | 1.6 | 1.6 | 0.00 | 0.00 | 0.00 | 55 | 1021.0 |
| 20260507073632 | 13 | 277 | 1.6 | 1.6 | 0.00 | 0.00 | 0.00 | 55 | 1021.0 |
| 20260507073510 | 13 | 277 | 1.6 | 1.6 | 0.00 | 0.00 | 0.00 | 55 | 1021.0 |
| 20260507072631 | 13 | 277 | 1.6 | 1.6 | 0.00 | 0.00 | 0.00 | 58 | 1021.0 |
| 20260507072508 | 13 | 277 | 1.6 | 1.6 | 0.00 | 0.00 | 0.00 | 58 | 1021.0 |
| 20260507071630 | 12 | 277 | 1.6 | 1.6 | 0.00 | 0.00 | 0.00 | 67 | 1021.0 |
| 20260507071507 | 12 | 277 | 1.6 | 1.6 | 0.00 | 0.00 | 0.00 | 67 | 1021.0 |
| 20260507070629 | 12 | 277 | 1.6 | 1.6 | 0.00 | 0.00 | 0.00 | 67 | 1021.0 |
| 20260507070505 | 12 | 277 | 1.6 | 1.6 | 0.00 | 0.00 | 0.00 | 67 | 1021.0 |
| 20260507065628 | 12 | 258 | 1.6 | 4.8 | 0.00 | 0.00 | 0.00 | 67 | 1021.0 |
| 20260507065503 | 12 | 258 | 1.6 | 4.8 | 0.00 | 0.00 | 0.00 | 67 | 1021.0 |
| 20260507064626 | 10 | 258 | 1.6 | 4.8 | 0.00 | 0.00 | 0.00 | 76 | 1021.0 |
| 20260507064502 | 10 | 258 | 1.6 | 4.8 | 0.00 | 0.00 | 0.00 | 76 | 1021.0 |
| 20260507063624 | 10 | 258 | 1.6 | 4.8 | 0.00 | 0.00 | 0.00 | 76 | 1021.0 |
| 20260507063501 | 10 | 258 | 1.6 | 4.8 | 0.00 | 0.00 | 0.00 | 76 | 1021.0 |
| 20260507062623 | 9 | 258 | 1.6 | 4.8 | 0.00 | 0.00 | 0.00 | 81 | 1021.0 |
| 20260507062459 | 9 | 258 | 1.6 | 4.8 | 0.00 | 0.00 | 0.00 | 81 | 1021.0 |
| 20260507061622 | 9 | 258 | 1.6 | 4.8 | 0.00 | 0.00 | 0.00 | 81 | 1021.0 |
| 20260507061458 | 9 | 258 | 1.6 | 4.8 | 0.00 | 0.00 | 0.00 | 81 | 1021.0 |
| 20260507060621 | 9 | 258 | 1.6 | 4.8 | 0.00 | 0.00 | 0.00 | 81 | 1021.0 |
| 20260507060457 | 9 | 258 | 1.6 | 4.8 | 0.00 | 0.00 | 0.00 | 81 | 1021.0 |
| 20260507055619 | 9 | 154 | 1.6 | 4.8 | 0.00 | 0.00 | 0.00 | 81 | 1021.0 |
| 20260507055455 | 9 | 154 | 1.6 | 4.8 | 0.00 | 0.00 | 0.00 | 81 | 1021.0 |
| 20260507054618 | 9 | 154 | 1.6 | 4.8 | 0.00 | 0.00 | 0.00 | 81 | 1021.0 |
| 20260507054454 | 9 | 154 | 1.6 | 4.8 | 0.00 | 0.00 | 0.00 | 81 | 1021.0 |
| 20260507053617 | 7 | 154 | 1.6 | 4.8 | 0.00 | 0.00 | 0.00 | 87 | 1021.0 |
| 20260507053453 | 7 | 154 | 1.6 | 4.8 | 0.00 | 0.00 | 0.00 | 87 | 1021.0 |
| 20260507052615 | 7 | 154 | 1.6 | 4.8 | 0.00 | 0.00 | 0.00 | 87 | 1021.0 |
| 20260507052451 | 7 | 154 | 1.6 | 4.8 | 0.00 | 0.00 | 0.00 | 87 | 1021.0 |
| 20260507051614 | 7 | 154 | 1.6 | 4.8 | 0.00 | 0.00 | 0.00 | 87 | 1021.0 |
| 20260507051450 | 7 | 154 | 1.6 | 4.8 | 0.00 | 0.00 | 0.00 | 87 | 1021.0 |
| 20260507050613 | 7 | 343 | 1.6 | 4.8 | 0.00 | 0.00 | 0.00 | 87 | 1021.0 |
| 20260507050449 | 7 | 343 | 1.6 | 4.8 | 0.00 | 0.00 | 0.00 | 87 | 1021.0 |
| 20260507045612 | 7 | 343 | 1.6 | 4.8 | 0.00 | 0.00 | 0.00 | 87 | 1021.0 |
| 20260507045447 | 7 | 343 | 1.6 | 4.8 | 0.00 | 0.00 | 0.00 | 87 | 1021.0 |
| 20260507044610 | 3 | 343 | 1.6 | 4.8 | 0.00 | 0.00 | 0.00 | 93 | 1020.0 |
| 20260507044445 | 3 | 343 | 1.6 | 4.8 | 0.00 | 0.00 | 0.00 | 93 | 1020.0 |
| 20260507043609 | 3 | 343 | 1.6 | 4.8 | 0.00 | 0.00 | 0.00 | 93 | 1020.0 |
| 20260507043444 | 3 | 343 | 1.6 | 4.8 | 0.00 | 0.00 | 0.00 | 93 | 1020.0 |
| 20260507042608 | 3 | 343 | 1.6 | 4.8 | 0.00 | 0.00 | 0.00 | 93 | 1020.0 |
| 20260507042443 | 3 | 343 | 1.6 | 4.8 | 0.00 | 0.00 | 0.00 | 93 | 1020.0 |
| 20260507041606 | 4 | 343 | 1.6 | 4.8 | 0.00 | 0.00 | 0.00 | 93 | 1020.0 |
| 20260507041441 | 4 | 343 | 1.6 | 4.8 | 0.00 | 0.00 | 0.00 | 93 | 1020.0 |
| 20260507040605 | 4 | 343 | 1.6 | 4.8 | 0.00 | 0.00 | 0.00 | 93 | 1020.0 |
| 20260507040439 | 4 | 343 | 1.6 | 4.8 | 0.00 | 0.00 | 0.00 | 93 | 1020.0 |
| 20260507035603 | 4 | 307 | 1.6 | 4.8 | 0.00 | 0.00 | 0.00 | 93 | 1020.0 |
| 20260507035438 | 4 | 307 | 1.6 | 4.8 | 0.00 | 0.00 | 0.00 | 93 | 1020.0 |
| 20260507034601 | 4 | 307 | 1.6 | 4.8 | 0.00 | 0.00 | 0.00 | 93 | 1020.0 |
| 20260507034437 | 4 | 307 | 1.6 | 4.8 | 0.00 | 0.00 | 0.00 | 93 | 1020.0 |
| 20260507033600 | 3 | 307 | 1.6 | 4.8 | 0.00 | 0.00 | 0.00 | 93 | 1020.0 |
| 20260507033435 | 3 | 307 | 1.6 | 4.8 | 0.00 | 0.00 | 0.00 | 93 | 1020.0 |
| 20260507032559 | 3 | 307 | 1.6 | 4.8 | 0.00 | 0.00 | 0.00 | 93 | 1020.0 |
| 20260507032433 | 3 | 307 | 1.6 | 4.8 | 0.00 | 0.00 | 0.00 | 93 | 1020.0 |
| 20260507031558 | 3 | 185 | 1.6 | 4.8 | 0.00 | 0.00 | 0.00 | 93 | 1020.0 |
| 20260507031432 | 3 | 185 | 1.6 | 4.8 | 0.00 | 0.00 | 0.00 | 93 | 1020.0 |
| 20260507030556 | 4 | 185 | 1.6 | 4.8 | 0.00 | 0.00 | 0.00 | 93 | 1020.0 |
| 20260507030430 | 4 | 185 | 1.6 | 4.8 | 0.00 | 0.00 | 0.00 | 93 | 1020.0 |
| 20260507025555 | 4 | 335 | 1.6 | 4.8 | 0.00 | 0.00 | 0.00 | 93 | 1020.0 |
| 20260507025429 | 4 | 335 | 1.6 | 4.8 | 0.00 | 0.00 | 0.00 | 93 | 1020.0 |
| 20260507024553 | 4 | 335 | 1.6 | 4.8 | 0.00 | 0.00 | 0.00 | 93 | 1020.0 |
| 20260507024428 | 4 | 335 | 1.6 | 4.8 | 0.00 | 0.00 | 0.00 | 93 | 1020.0 |
| 20260507023552 | 5 | 335 | 1.6 | 4.8 | 0.00 | 0.00 | 0.00 | 93 | 1019.0 |
| 20260507023427 | 5 | 335 | 1.6 | 4.8 | 0.00 | 0.00 | 0.00 | 93 | 1019.0 |
| 20260507022550 | 5 | 335 | 1.6 | 4.8 | 0.00 | 0.00 | 0.00 | 93 | 1019.0 |
| 20260507022424 | 5 | 335 | 1.6 | 4.8 | 0.00 | 0.00 | 0.00 | 93 | 1019.0 |
| 20260507021548 | 5 | 335 | 1.6 | 4.8 | 0.00 | 0.00 | 0.00 | 93 | 1019.0 |
| 20260507021423 | 5 | 335 | 1.6 | 4.8 | 0.00 | 0.00 | 0.00 | 93 | 1019.0 |
| 20260507020547 | 5 | 329 | 1.6 | 1.6 | 0.00 | 0.00 | 0.00 | 93 | 1019.0 |
| 20260507020422 | 5 | 329 | 1.6 | 1.6 | 0.00 | 0.00 | 0.00 | 93 | 1019.0 |
| 20260507015545 | 5 | 329 | 1.6 | 1.6 | 0.00 | 0.00 | 0.00 | 93 | 1019.0 |
| 20260507015420 | 5 | 329 | 1.6 | 1.6 | 0.00 | 0.00 | 0.00 | 93 | 1019.0 |
| 20260507014545 | 5 | 329 | 1.6 | 1.6 | 0.00 | 0.00 | 0.00 | 93 | 1019.0 |
| 20260507014419 | 5 | 329 | 1.6 | 1.6 | 0.00 | 0.00 | 0.00 | 93 | 1019.0 |
| 20260507013543 | 4 | 329 | 1.6 | 1.6 | 0.00 | 0.00 | 0.00 | 93 | 1019.0 |
| 20260507013418 | 4 | 329 | 1.6 | 1.6 | 0.00 | 0.00 | 0.00 | 93 | 1019.0 |
| 20260507012541 | 3 | 329 | 1.6 | 1.6 | 0.00 | 0.00 | 0.00 | 93 | 1019.0 |
| 20260507012416 | 3 | 329 | 1.6 | 1.6 | 0.00 | 0.00 | 0.00 | 93 | 1019.0 |
| 20260507011540 | 3 | 329 | 1.6 | 1.6 | 0.00 | 0.00 | 0.00 | 93 | 1019.0 |
| 20260507011415 | 3 | 329 | 1.6 | 1.6 | 0.00 | 0.00 | 0.00 | 93 | 1019.0 |
| 20260507010539 | 3 | 329 | 1.6 | 1.6 | 0.00 | 0.00 | 0.00 | 93 | 1019.0 |
| 20260507010414 | 3 | 329 | 1.6 | 1.6 | 0.00 | 0.00 | 0.00 | 93 | 1019.0 |
| 20260507005537 | 3 | 288 | 1.6 | 1.6 | 0.00 | 0.00 | 0.00 | 93 | 1019.0 |
| 20260507005413 | 3 | 288 | 1.6 | 1.6 | 0.00 | 0.00 | 0.00 | 93 | 1019.0 |
| 20260507004536 | 3 | 288 | 1.6 | 1.6 | 0.00 | 0.00 | 0.00 | 93 | 1019.0 |
| 20260507004412 | 3 | 288 | 1.6 | 1.6 | 0.00 | 0.00 | 0.00 | 93 | 1019.0 |
| 20260507003535 | 3 | 288 | 1.6 | 1.6 | 0.00 | 0.00 | 0.00 | 93 | 1019.0 |
| 20260507003410 | 3 | 288 | 1.6 | 1.6 | 0.00 | 0.00 | 0.00 | 93 | 1019.0 |
| 20260507002533 | 3 | 288 | 1.6 | 1.6 | 0.00 | 0.00 | 0.00 | 93 | 1019.0 |
| 20260507002408 | 3 | 288 | 1.6 | 1.6 | 0.00 | 0.00 | 0.00 | 93 | 1019.0 |
| 20260507001532 | 5 | 288 | 1.6 | 1.6 | 0.00 | 0.00 | 0.00 | 93 | 1019.0 |
| 20260507001407 | 5 | 288 | 1.6 | 1.6 | 0.00 | 0.00 | 0.00 | 93 | 1019.0 |
| 20260507000530 | 5 | 288 | 1.6 | 1.6 | 0.00 | 0.00 | 0.00 | 93 | 1019.0 |
| 20260507000406 | 5 | 288 | 1.6 | 1.6 | 0.00 | 0.00 | 0.00 | 93 | 1019.0 |
| 20260506235529 | 5 | 224 | 1.6 | 4.8 | 0.00 | 0.00 | 0.00 | 93 | 1019.0 |
| 20260506235405 | 5 | 224 | 1.6 | 4.8 | 0.00 | 0.00 | 0.00 | 93 | 1019.0 |
| 20260506234528 | 5 | 224 | 1.6 | 4.8 | 0.00 | 0.00 | 0.00 | 93 | 1019.0 |
| 20260506234404 | 5 | 224 | 1.6 | 4.8 | 0.00 | 0.00 | 0.00 | 93 | 1019.0 |
| 20260506233526 | 5 | 224 | 1.6 | 4.8 | 0.00 | 0.00 | 0.00 | 93 | 1019.0 |
| 20260506233402 | 5 | 224 | 1.6 | 4.8 | 0.00 | 0.00 | 0.00 | 93 | 1019.0 |
| 20260506232524 | 6 | 224 | 1.6 | 4.8 | 0.00 | 0.00 | 0.00 | 87 | 1019.0 |
| 20260506232400 | 6 | 224 | 1.6 | 4.8 | 0.00 | 0.00 | 0.00 | 87 | 1019.0 |
| 20260506231523 | 6 | 224 | 1.6 | 4.8 | 0.00 | 0.00 | 0.00 | 87 | 1019.0 |
| 20260506231359 | 6 | 224 | 1.6 | 4.8 | 0.00 | 0.00 | 0.00 | 87 | 1019.0 |
| 20260506230522 | 6 | 224 | 1.6 | 4.8 | 0.00 | 0.00 | 0.00 | 87 | 1019.0 |
| 20260506230358 | 6 | 224 | 1.6 | 4.8 | 0.00 | 0.00 | 0.00 | 87 | 1019.0 |
| 20260506225520 | 6 | 168 | 1.6 | 4.8 | 0.00 | 0.00 | 0.00 | 87 | 1019.0 |
| 20260506225357 | 6 | 168 | 1.6 | 4.8 | 0.00 | 0.00 | 0.00 | 87 | 1019.0 |
| 20260506224519 | 6 | 168 | 1.6 | 4.8 | 0.00 | 0.00 | 0.00 | 87 | 1019.0 |
| 20260506224355 | 6 | 168 | 1.6 | 4.8 | 0.00 | 0.00 | 0.00 | 87 | 1019.0 |
| 20260506223517 | 6 | 168 | 1.6 | 4.8 | 0.00 | 0.00 | 0.00 | 87 | 1019.0 |
| 20260506223354 | 6 | 168 | 1.6 | 4.8 | 0.00 | 0.00 | 0.00 | 87 | 1019.0 |
| 20260506222516 | 6 | 168 | 1.6 | 4.8 | 0.00 | 0.00 | 0.00 | 87 | 1019.0 |
| 20260506222353 | 6 | 168 | 1.6 | 4.8 | 0.00 | 0.00 | 0.00 | 87 | 1019.0 |
| 20260506221515 | 6 | 168 | 1.6 | 4.8 | 0.00 | 0.00 | 0.00 | 87 | 1019.0 |
| 20260506221352 | 6 | 168 | 1.6 | 4.8 | 0.00 | 0.00 | 0.00 | 87 | 1019.0 |
| 20260506220513 | 6 | 168 | 1.6 | 4.8 | 0.00 | 0.00 | 0.00 | 87 | 1019.0 |
| 20260506220351 | 6 | 168 | 1.6 | 4.8 | 0.00 | 0.00 | 0.00 | 87 | 1019.0 |
| 20260506215512 | 6 | 168 | 1.6 | 4.8 | 0.00 | 0.00 | 0.00 | 87 | 1019.0 |
| 20260506215349 | 6 | 168 | 1.6 | 4.8 | 0.00 | 0.00 | 0.00 | 87 | 1019.0 |
| 20260506214511 | 6 | 168 | 1.6 | 4.8 | 0.00 | 0.00 | 0.00 | 87 | 1019.0 |
| 20260506214348 | 6 | 168 | 1.6 | 4.8 | 0.00 | 0.00 | 0.00 | 87 | 1019.0 |
| 20260506213510 | 6 | 168 | 1.6 | 4.8 | 0.00 | 0.00 | 0.00 | 87 | 1019.0 |
| 20260506213347 | 6 | 168 | 1.6 | 4.8 | 0.00 | 0.00 | 0.00 | 87 | 1019.0 |
| 20260506212509 | 6 | 168 | 1.6 | 4.8 | 0.00 | 0.00 | 0.00 | 93 | 1019.0 |
| 20260506212345 | 6 | 168 | 1.6 | 4.8 | 0.00 | 0.00 | 0.00 | 93 | 1019.0 |
| 20260506211507 | 7 | 168 | 1.6 | 4.8 | 0.00 | 0.00 | 0.00 | 87 | 1019.0 |
| 20260506211343 | 7 | 168 | 1.6 | 4.8 | 0.00 | 0.00 | 0.00 | 87 | 1019.0 |
| 20260506210505 | 7 | 168 | 1.6 | 4.8 | 0.00 | 0.00 | 0.00 | 87 | 1019.0 |
| 20260506210342 | 7 | 168 | 1.6 | 4.8 | 0.00 | 0.00 | 0.00 | 87 | 1019.0 |
| 20260506205504 | 7 | 154 | 1.6 | 1.6 | 0.00 | 0.00 | 0.00 | 87 | 1019.0 |
| 20260506205341 | 7 | 154 | 1.6 | 1.6 | 0.00 | 0.00 | 0.00 | 87 | 1019.0 |
| 20260506204502 | 7 | 171 | 1.6 | 4.8 | 0.00 | 0.00 | 0.00 | 87 | 1019.0 |
| 20260506204340 | 7 | 171 | 1.6 | 4.8 | 0.00 | 0.00 | 0.00 | 87 | 1019.0 |
| 20260506203501 | 7 | 171 | 1.6 | 4.8 | 0.00 | 0.00 | 0.00 | 87 | 1019.0 |
| 20260506203339 | 7 | 171 | 1.6 | 4.8 | 0.00 | 0.00 | 0.00 | 87 | 1019.0 |
| 20260506202501 | 7 | 171 | 1.6 | 4.8 | 0.00 | 0.00 | 0.00 | 93 | 1019.0 |
| 20260506202337 | 7 | 171 | 1.6 | 4.8 | 0.00 | 0.00 | 0.00 | 93 | 1019.0 |
| 20260506201458 | 8 | 171 | 1.6 | 4.8 | 0.00 | 0.00 | 0.00 | 87 | 1019.0 |
| 20260506201336 | 8 | 171 | 1.6 | 4.8 | 0.00 | 0.00 | 0.00 | 87 | 1019.0 |
| 20260506200457 | 8 | 171 | 1.6 | 4.8 | 0.00 | 0.00 | 0.00 | 87 | 1019.0 |
| 20260506200335 | 8 | 171 | 1.6 | 4.8 | 0.00 | 0.00 | 0.00 | 87 | 1019.0 |
| 20260506195455 | 8 | 86 | 1.6 | 4.8 | 0.00 | 0.00 | 0.00 | 87 | 1019.0 |
| 20260506195333 | 8 | 86 | 1.6 | 4.8 | 0.00 | 0.00 | 0.00 | 87 | 1019.0 |
| 20260506194454 | 8 | 86 | 1.6 | 4.8 | 0.00 | 0.00 | 0.00 | 87 | 1019.0 |
| 20260506194331 | 8 | 86 | 1.6 | 4.8 | 0.00 | 0.00 | 0.00 | 87 | 1019.0 |
| 20260506193453 | 8 | 86 | 1.6 | 4.8 | 0.00 | 0.00 | 0.00 | 87 | 1019.0 |
| 20260506193330 | 8 | 86 | 1.6 | 4.8 | 0.00 | 0.00 | 0.00 | 87 | 1019.0 |
| 20260506192452 | 8 | 86 | 1.6 | 4.8 | 0.00 | 0.00 | 0.00 | 81 | 1018.0 |
| 20260506192329 | 8 | 86 | 1.6 | 4.8 | 0.00 | 0.00 | 0.00 | 81 | 1018.0 |
| 20260506191450 | 9 | 86 | 1.6 | 4.8 | 0.00 | 0.00 | 0.00 | 81 | 1018.0 |
| 20260506191327 | 9 | 86 | 1.6 | 4.8 | 0.00 | 0.00 | 0.00 | 81 | 1018.0 |
| 20260506190448 | 9 | 86 | 1.6 | 4.8 | 0.00 | 0.00 | 0.00 | 81 | 1018.0 |
| 20260506190326 | 9 | 86 | 1.6 | 4.8 | 0.00 | 0.00 | 0.00 | 81 | 1018.0 |
| 20260506185447 | 8 | 343 | 1.6 | 1.6 | 0.00 | 0.00 | 0.00 | 81 | 1018.0 |
| 20260506185325 | 8 | 343 | 1.6 | 1.6 | 0.00 | 0.00 | 0.00 | 81 | 1018.0 |
| 20260506184446 | 8 | 343 | 1.6 | 1.6 | 0.00 | 0.00 | 0.00 | 81 | 1018.0 |
| 20260506184323 | 8 | 343 | 1.6 | 1.6 | 0.00 | 0.00 | 0.00 | 81 | 1018.0 |
| 20260506183444 | 10 | 343 | 1.6 | 1.6 | 0.00 | 0.00 | 0.00 | 71 | 1018.0 |
| 20260506183322 | 10 | 343 | 1.6 | 1.6 | 0.00 | 0.00 | 0.00 | 71 | 1018.0 |
| 20260506182443 | 10 | 343 | 1.6 | 1.6 | 0.00 | 0.00 | 0.00 | 71 | 1018.0 |
| 20260506182320 | 10 | 343 | 1.6 | 1.6 | 0.00 | 0.00 | 0.00 | 71 | 1018.0 |
| 20260506181441 | 11 | 343 | 1.6 | 1.6 | 0.00 | 0.00 | 0.00 | 71 | 1018.0 |
| 20260506181319 | 11 | 343 | 1.6 | 1.6 | 0.00 | 0.00 | 0.00 | 71 | 1018.0 |
| 20260506180440 | 11 | 317 | 1.6 | 4.8 | 0.00 | 0.00 | 0.00 | 71 | 1018.0 |
| 20260506180317 | 11 | 317 | 1.6 | 4.8 | 0.00 | 0.00 | 0.00 | 71 | 1018.0 |
| 20260506175438 | 11 | 317 | 1.6 | 4.8 | 0.00 | 0.00 | 0.00 | 71 | 1018.0 |
| 20260506175316 | 11 | 317 | 1.6 | 4.8 | 0.00 | 0.00 | 0.00 | 71 | 1018.0 |
| 20260506174437 | 11 | 317 | 1.6 | 4.8 | 0.00 | 0.00 | 0.00 | 71 | 1018.0 |
| 20260506174315 | 11 | 317 | 1.6 | 4.8 | 0.00 | 0.00 | 0.00 | 71 | 1018.0 |
| 20260506173435 | 12 | 317 | 1.6 | 4.8 | 0.00 | 0.00 | 0.00 | 62 | 1017.0 |
| 20260506173313 | 12 | 317 | 1.6 | 4.8 | 0.00 | 0.00 | 0.00 | 62 | 1017.0 |
| 20260506172434 | 12 | 317 | 1.6 | 4.8 | 0.00 | 0.00 | 0.00 | 58 | 1017.0 |
| 20260506172312 | 12 | 317 | 1.6 | 4.8 | 0.00 | 0.00 | 0.00 | 58 | 1017.0 |
| 20260506171432 | 12 | 317 | 1.6 | 4.8 | 0.00 | 0.00 | 0.00 | 58 | 1017.0 |
| 20260506171310 | 12 | 317 | 1.6 | 4.8 | 0.00 | 0.00 | 0.00 | 58 | 1017.0 |
| 20260506170431 | 13 | 292 | 3.2 | 4.8 | 0.00 | 0.00 | 0.00 | 58 | 1017.0 |
| 20260506170308 | 13 | 292 | 3.2 | 4.8 | 0.00 | 0.00 | 0.00 | 58 | 1017.0 |
| 20260506165430 | 13 | 292 | 3.2 | 4.8 | 0.00 | 0.00 | 0.00 | 58 | 1017.0 |
| 20260506165307 | 13 | 292 | 3.2 | 4.8 | 0.00 | 0.00 | 0.00 | 58 | 1017.0 |
| 20260506164428 | 13 | 292 | 3.2 | 4.8 | 0.00 | 0.00 | 0.00 | 58 | 1017.0 |
| 20260506164305 | 13 | 292 | 3.2 | 4.8 | 0.00 | 0.00 | 0.00 | 58 | 1017.0 |
| 20260506163426 | 13 | 292 | 3.2 | 4.8 | 0.00 | 0.00 | 0.00 | 58 | 1017.0 |
| 20260506163304 | 13 | 292 | 3.2 | 4.8 | 0.00 | 0.00 | 0.00 | 58 | 1017.0 |
| 20260506162425 | 13 | 292 | 3.2 | 4.8 | 0.00 | 0.00 | 0.00 | 58 | 1017.0 |
| 20260506162306 | 13 | 292 | 3.2 | 4.8 | 0.00 | 0.00 | 0.00 | 58 | 1017.0 |
| 20260506161423 | 14 | 292 | 3.2 | 4.8 | 0.00 | 0.00 | 0.00 | 47 | 1017.0 |
| 20260506161300 | 14 | 292 | 3.2 | 4.8 | 0.00 | 0.00 | 0.00 | 47 | 1017.0 |
| 20260506160422 | 14 | 292 | 3.2 | 4.8 | 0.00 | 0.00 | 0.00 | 47 | 1017.0 |
| 20260506160259 | 14 | 292 | 3.2 | 4.8 | 0.00 | 0.00 | 0.00 | 47 | 1017.0 |
| 20260506155421 | 14 | 289 | 4.8 | 4.8 | 0.00 | 0.00 | 0.00 | 47 | 1017.0 |
| 20260506155258 | 14 | 289 | 4.8 | 4.8 | 0.00 | 0.00 | 0.00 | 47 | 1017.0 |
| 20260506154420 | 13 | 289 | 4.8 | 4.8 | 0.00 | 0.00 | 0.00 | 55 | 1017.0 |
| 20260506154257 | 13 | 289 | 4.8 | 4.8 | 0.00 | 0.00 | 0.00 | 55 | 1017.0 |
| 20260506153418 | 13 | 289 | 4.8 | 4.8 | 0.00 | 0.00 | 0.00 | 55 | 1017.0 |
| 20260506153256 | 13 | 289 | 4.8 | 4.8 | 0.00 | 0.00 | 0.00 | 55 | 1017.0 |
| 20260506152417 | 13 | 289 | 4.8 | 4.8 | 0.00 | 0.00 | 0.00 | 55 | 1017.0 |
| 20260506152254 | 13 | 289 | 4.8 | 4.8 | 0.00 | 0.00 | 0.00 | 55 | 1017.0 |
| 20260506151415 | 15 | 289 | 4.8 | 4.8 | 0.00 | 0.00 | 0.00 | 59 | 1017.0 |
| 20260506151253 | 15 | 289 | 4.8 | 4.8 | 0.00 | 0.00 | 0.00 | 59 | 1017.0 |
| 20260506150414 | 15 | 289 | 4.8 | 4.8 | 0.00 | 0.00 | 0.00 | 59 | 1017.0 |
| 20260506150251 | 15 | 289 | 4.8 | 4.8 | 0.00 | 0.00 | 0.00 | 59 | 1017.0 |
| 20260506145413 | 15 | 292 | 4.8 | 4.8 | 0.00 | 0.00 | 0.00 | 59 | 1017.0 |
| 20260506145250 | 15 | 292 | 4.8 | 4.8 | 0.00 | 0.00 | 0.00 | 59 | 1017.0 |
| 20260506144411 | 15 | 292 | 4.8 | 4.8 | 0.00 | 0.00 | 0.00 | 59 | 1017.0 |
| 20260506144249 | 15 | 292 | 4.8 | 4.8 | 0.00 | 0.00 | 0.00 | 59 | 1017.0 |
| 20260506143410 | 15 | 277 | 3.2 | 3.2 | 0.00 | 0.00 | 0.00 | 59 | 1017.0 |
| 20260506143247 | 15 | 277 | 3.2 | 3.2 | 0.00 | 0.00 | 0.00 | 59 | 1017.0 |
| 20260506142408 | 12 | 277 | 3.2 | 3.2 | 0.00 | 0.00 | 0.00 | 62 | 1017.0 |
| 20260506142245 | 12 | 277 | 3.2 | 3.2 | 0.00 | 0.00 | 0.00 | 62 | 1017.0 |
| 20260506141408 | 14 | 277 | 3.2 | 3.2 | 0.00 | 0.00 | 0.00 | 59 | 1017.0 |
| 20260506141244 | 14 | 277 | 3.2 | 3.2 | 0.00 | 0.00 | 0.00 | 59 | 1017.0 |
| 20260506140406 | 13 | 270 | 3.2 | 3.2 | 0.00 | 0.00 | 0.00 | 59 | 1017.0 |
| 20260506140243 | 13 | 270 | 3.2 | 3.2 | 0.00 | 0.00 | 0.00 | 59 | 1017.0 |
| 20260506135404 | 13 | 270 | 3.2 | 3.2 | 0.00 | 0.00 | 0.00 | 59 | 1017.0 |
| 20260506135241 | 13 | 270 | 3.2 | 3.2 | 0.00 | 0.00 | 0.00 | 59 | 1017.0 |
| 20260506134402 | 14 | 270 | 3.2 | 3.2 | 0.00 | 0.00 | 0.00 | 59 | 1017.0 |
| 20260506134240 | 14 | 270 | 3.2 | 3.2 | 0.00 | 0.00 | 0.00 | 59 | 1017.0 |
| 20260506133401 | 14 | 270 | 3.2 | 3.2 | 0.00 | 0.00 | 0.00 | 59 | 1017.0 |
| 20260506133238 | 14 | 270 | 3.2 | 3.2 | 0.00 | 0.00 | 0.00 | 59 | 1017.0 |
| 20260506132400 | 13 | 270 | 3.2 | 3.2 | 0.00 | 0.00 | 0.00 | 62 | 1017.0 |
| 20260506132237 | 13 | 270 | 3.2 | 3.2 | 0.00 | 0.00 | 0.00 | 62 | 1017.0 |
| 20260506131401 | 13 | 270 | 3.2 | 3.2 | 0.00 | 0.00 | 0.00 | 55 | 1017.0 |
| 20260506131359 | 13 | 270 | 3.2 | 3.2 | 0.00 | 0.00 | 0.00 | 55 | 1017.0 |
| 20260506131236 | 13 | 270 | 3.2 | 3.2 | 0.00 | 0.00 | 0.00 | 55 | 1017.0 |
| 20260506130358 | 13 | 270 | 3.2 | 3.2 | 0.00 | 0.00 | 0.00 | 55 | 1017.0 |
| 20260506130234 | 13 | 270 | 3.2 | 3.2 | 0.00 | 0.00 | 0.00 | 55 | 1017.0 |
| 20260506125358 | 14 | 260 | 3.2 | 4.8 | 0.00 | 0.00 | 0.00 | 55 | 1017.0 |
| 20260506125233 | 14 | 260 | 3.2 | 4.8 | 0.00 | 0.00 | 0.00 | 55 | 1017.0 |
| 20260506124354 | 12 | 260 | 3.2 | 4.8 | 0.00 | 0.00 | 0.00 | 62 | 1017.0 |
| 20260506124231 | 12 | 260 | 3.2 | 4.8 | 0.00 | 0.00 | 0.00 | 62 | 1017.0 |
| 20260506123353 | 12 | 260 | 3.2 | 4.8 | 0.00 | 0.00 | 0.00 | 62 | 1017.0 |
| 20260506123230 | 12 | 260 | 3.2 | 4.8 | 0.00 | 0.00 | 0.00 | 62 | 1017.0 |
| 20260506122352 | 12 | 260 | 3.2 | 4.8 | 0.00 | 0.00 | 0.00 | 62 | 1017.0 |
| 20260506122228 | 12 | 260 | 3.2 | 4.8 | 0.00 | 0.00 | 0.00 | 62 | 1017.0 |
| 20260506121350 | 12 | 260 | 3.2 | 4.8 | 0.00 | 0.00 | 0.00 | 71 | 1018.0 |
| 20260506121227 | 12 | 260 | 3.2 | 4.8 | 0.00 | 0.00 | 0.00 | 71 | 1018.0 |